createdAt,value
2023-05-06T00:00:56.037Z,96.90
2023-05-06T00:03:58.543Z,96.80
2023-05-06T00:07:01.102Z,96.80
2023-05-06T00:10:04.253Z,96.90
2023-05-06T00:13:06.512Z,97.20
2023-05-06T00:16:08.850Z,97.40
2023-05-06T00:19:11.001Z,97.60
2023-05-06T00:22:13.110Z,97.70
2023-05-06T00:25:15.379Z,97.80
2023-05-06T00:28:18.501Z,97.80
2023-05-06T00:31:20.651Z,97.70
2023-05-06T00:34:23.522Z,97.50
2023-05-06T00:37:25.658Z,97.40
2023-05-06T00:40:27.771Z,97.40
2023-05-06T00:43:29.957Z,97.20
2023-05-06T00:46:32.305Z,97.90
2023-05-06T00:49:34.620Z,97.60
2023-05-06T00:52:37.044Z,97.60
2023-05-06T00:55:40.754Z,97.70
2023-05-06T00:58:42.935Z,98.00
2023-05-06T01:01:45.058Z,97.60
2023-05-06T01:04:47.440Z,98.10
2023-05-06T01:07:58.491Z,97.90
2023-05-06T01:11:17.150Z,98.00
2023-05-06T01:14:53.065Z,98.10
2023-05-06T01:17:58.907Z,98.10
2023-05-06T01:21:02.081Z,97.90
2023-05-06T01:24:04.351Z,97.80
2023-05-06T01:27:08.243Z,98.00
2023-05-06T01:30:10.745Z,98.00
2023-05-06T01:33:38.705Z,97.90
2023-05-06T01:37:07.059Z,98.10
2023-05-06T01:40:10.308Z,98.10
2023-05-06T01:43:14.633Z,98.20
2023-05-06T01:46:20.402Z,98.30
2023-05-06T01:49:26.601Z,98.40
2023-05-06T01:52:29.026Z,98.30
2023-05-06T01:55:32.314Z,98.30
2023-05-06T01:58:34.615Z,98.30
2023-05-06T02:01:37.949Z,98.30
2023-05-06T02:04:40.105Z,98.20
2023-05-06T02:07:42.092Z,98.20
2023-05-06T02:10:45.090Z,98.20
2023-05-06T02:13:47.246Z,98.10
2023-05-06T02:16:49.239Z,98.20
2023-05-06T02:19:51.534Z,98.40
2023-05-06T02:22:53.726Z,98.50
2023-05-06T02:25:58.206Z,98.50
2023-05-06T02:29:00.554Z,98.40
2023-05-06T02:32:02.830Z,98.30
2023-05-06T02:35:06.394Z,98.40
2023-05-06T02:38:08.893Z,98.60
2023-05-06T02:41:11.046Z,98.90
2023-05-06T02:44:13.586Z,99.20
2023-05-06T02:47:16.119Z,99.10
2023-05-06T02:50:18.497Z,98.90
2023-05-06T02:53:20.652Z,98.80
2023-05-06T02:56:22.851Z,98.70
2023-05-06T02:59:24.961Z,98.70
2023-05-06T03:02:28.094Z,98.80
2023-05-06T03:05:30.288Z,98.60
2023-05-06T03:08:32.806Z,98.60
2023-05-06T03:11:35.752Z,98.50
2023-05-06T03:14:37.844Z,98.40
2023-05-06T03:17:40.274Z,98.20
2023-05-06T03:20:42.621Z,98.30
2023-05-06T03:23:46.486Z,98.40
2023-05-06T03:26:55.990Z,98.50
2023-05-06T03:30:02.156Z,98.30
2023-05-06T03:33:04.301Z,98.60
2023-05-06T03:36:06.887Z,98.50
2023-05-06T03:39:09.213Z,98.40
2023-05-06T03:42:11.373Z,98.50
2023-05-06T03:45:13.703Z,98.30
2023-05-06T03:48:15.980Z,98.30
2023-05-06T03:51:18.330Z,98.40
2023-05-06T03:54:20.694Z,98.40
2023-05-06T03:57:22.837Z,98.40
2023-05-06T04:00:25.540Z,98.40
2023-05-06T04:03:27.706Z,98.40
2023-05-06T04:06:29.866Z,98.30
2023-05-06T04:09:33.539Z,98.30
2023-05-06T04:12:36.031Z,98.40
2023-05-06T04:15:45.255Z,98.40
2023-05-06T04:18:58.519Z,98.50
2023-05-06T04:22:02.636Z,98.80
2023-05-06T04:25:05.583Z,99.00
2023-05-06T04:28:07.637Z,98.90
2023-05-06T04:31:10.706Z,99.00
2023-05-06T04:34:12.839Z,99.50
2023-05-06T04:37:15.451Z,99.50
2023-05-06T04:40:18.055Z,99.40
2023-05-06T04:43:20.216Z,99.50
2023-05-06T04:46:23.892Z,99.40
2023-05-06T04:49:26.297Z,99.40
2023-05-06T04:52:28.592Z,99.40
2023-05-06T04:55:30.828Z,99.60
2023-05-06T04:58:33.579Z,99.60
2023-05-06T05:01:36.283Z,99.70
2023-05-06T05:04:38.578Z,99.60
2023-05-06T05:07:40.724Z,99.60
2023-05-06T05:10:46.037Z,99.40
2023-05-06T05:13:48.148Z,99.60
2023-05-06T05:16:50.373Z,99.50
2023-05-06T05:19:53.005Z,99.70
2023-05-06T05:22:55.345Z,99.70
2023-05-06T05:25:57.429Z,99.80
2023-05-06T05:28:59.620Z,99.80
2023-05-06T05:32:02.660Z,99.90
2023-05-06T05:35:05.481Z,99.90
2023-05-06T05:38:07.576Z,99.90
2023-05-06T05:41:09.807Z,99.90
2023-05-06T05:44:18.834Z,99.90
2023-05-06T05:47:20.857Z,99.90
2023-05-06T05:50:23.332Z,99.90
2023-05-06T05:53:25.929Z,99.90
2023-05-06T05:56:28.156Z,99.90
2023-05-06T05:59:30.242Z,99.90
2023-05-06T06:02:34.666Z,99.90
2023-05-06T06:05:37.450Z,99.90
2023-05-06T06:08:39.916Z,99.90
2023-05-06T06:11:42.220Z,99.90
2023-05-06T06:14:48.373Z,99.90
2023-05-06T06:17:50.565Z,99.90
2023-05-06T06:20:53.470Z,99.90
2023-05-06T06:23:55.787Z,99.90
2023-05-06T06:26:58.108Z,99.90
2023-05-06T06:30:00.193Z,99.90
2023-05-06T06:33:02.535Z,99.90
2023-05-06T06:36:04.711Z,99.90
2023-05-06T06:39:06.989Z,99.90
2023-05-06T06:42:09.028Z,99.90
2023-05-06T06:45:11.932Z,99.90
2023-05-06T06:48:14.593Z,99.90
2023-05-06T06:51:16.740Z,99.90
2023-05-06T06:54:19.082Z,99.90
2023-05-06T06:57:21.178Z,99.90
2023-05-06T07:00:23.399Z,99.90
2023-05-06T07:03:25.589Z,99.90
2023-05-06T07:06:27.924Z,99.90
2023-05-06T07:09:29.960Z,99.90
2023-05-06T07:12:32.104Z,99.90
2023-05-06T07:15:34.167Z,99.90
2023-05-06T07:18:36.562Z,99.40
2023-05-06T07:21:38.658Z,98.40
2023-05-06T07:24:40.933Z,98.20
2023-05-06T07:27:43.212Z,97.10
2023-05-06T07:30:45.944Z,97.40
2023-05-06T07:33:48.414Z,96.70
2023-05-06T07:36:50.724Z,96.90
2023-05-06T07:39:52.742Z,96.50
2023-05-06T07:42:54.839Z,96.70
2023-05-06T07:46:02.742Z,96.70
2023-05-06T07:49:04.972Z,96.70
2023-05-06T07:52:07.039Z,96.40
2023-05-06T07:55:10.337Z,96.70
2023-05-06T07:58:12.661Z,96.30
2023-05-06T08:01:14.770Z,95.90
2023-05-06T08:04:17.434Z,95.50
2023-05-06T08:07:20.083Z,95.20
2023-05-06T08:10:25.035Z,95.30
2023-05-06T08:13:28.283Z,95.30
2023-05-06T08:16:30.434Z,95.20
2023-05-06T08:19:32.689Z,95.50
2023-05-06T08:22:34.804Z,95.60
2023-05-06T08:25:36.826Z,95.60
2023-05-06T08:28:38.880Z,95.70
2023-05-06T08:31:40.916Z,95.10
2023-05-06T08:34:43.027Z,94.90
2023-05-06T08:37:45.300Z,94.10
2023-05-06T08:40:49.420Z,93.30
2023-05-06T08:43:54.030Z,92.60
2023-05-06T08:46:56.334Z,93.00
2023-05-06T08:49:58.693Z,93.30
2023-05-06T08:53:01.934Z,93.20
2023-05-06T08:56:08.770Z,93.30
2023-05-06T08:59:13.831Z,93.70
2023-05-06T09:02:15.955Z,94.50
2023-05-06T09:05:19.037Z,95.30
2023-05-06T09:08:21.504Z,96.60
2023-05-06T09:11:28.646Z,97.10
2023-05-06T09:14:31.000Z,97.50
2023-05-06T09:17:33.753Z,98.20
2023-05-06T09:20:40.357Z,98.00
2023-05-06T09:23:42.598Z,97.60
2023-05-06T09:26:45.903Z,97.40
2023-05-06T09:30:21.006Z,94.80
2023-05-06T09:33:23.288Z,90.50
2023-05-06T09:36:27.691Z,85.00
2023-05-06T09:39:29.980Z,82.00
2023-05-06T09:42:32.529Z,76.90
2023-05-06T09:45:35.433Z,73.70
2023-05-06T09:48:37.973Z,73.00
2023-05-06T09:51:42.648Z,73.40
2023-05-06T09:54:47.039Z,75.00
2023-05-06T09:57:50.670Z,77.20
2023-05-06T10:00:54.003Z,80.60
2023-05-06T10:03:58.286Z,83.40
2023-05-06T10:07:01.741Z,85.60
2023-05-06T10:10:07.144Z,86.30
2023-05-06T10:13:10.149Z,85.20
2023-05-06T10:16:14.609Z,86.90
2023-05-06T10:19:23.253Z,86.30
2023-05-06T10:23:02.528Z,80.60
2023-05-06T10:26:10.662Z,80.80
2023-05-06T10:29:14.179Z,79.40
2023-05-06T10:32:17.962Z,81.50
2023-05-06T10:35:46.840Z,84.00
2023-05-06T10:38:56.777Z,78.10
2023-05-06T10:41:59.053Z,74.30
2023-05-06T10:45:05.947Z,71.00
2023-05-06T10:48:09.118Z,65.90
2023-05-06T10:51:17.084Z,65.40
2023-05-06T10:54:19.071Z,62.40
2023-05-06T10:57:26.855Z,60.30
2023-05-06T11:00:34.553Z,60.40
2023-05-06T11:03:36.949Z,60.40
2023-05-06T11:06:47.989Z,62.40
2023-05-06T11:09:57.211Z,64.80
2023-05-06T11:13:19.333Z,64.20
2023-05-06T11:16:47.409Z,62.40
2023-05-06T11:19:49.502Z,61.80
2023-05-06T11:22:52.947Z,65.60
2023-05-06T11:25:58.478Z,65.70
2023-05-06T11:29:02.674Z,66.00
2023-05-06T11:32:19.283Z,66.70
2023-05-06T11:35:23.066Z,68.10
2023-05-06T11:38:46.430Z,67.30
2023-05-06T11:41:48.873Z,64.60
2023-05-06T11:44:53.350Z,64.90
2023-05-06T11:47:55.569Z,66.70
2023-05-06T11:50:58.009Z,67.20
2023-05-06T11:54:07.763Z,68.30
2023-05-06T11:57:10.380Z,67.60
2023-05-06T12:00:13.517Z,68.30
2023-05-06T12:03:15.817Z,69.10
2023-05-06T12:06:19.248Z,68.10
2023-05-06T12:09:23.068Z,68.80
2023-05-06T12:12:27.651Z,68.60
2023-05-06T12:15:30.484Z,68.30
2023-05-06T12:18:33.137Z,66.70
2023-05-06T12:21:38.584Z,68.90
2023-05-06T12:24:41.632Z,68.40
2023-05-06T12:27:45.874Z,69.30
2023-05-06T12:30:48.364Z,69.40
2023-05-06T12:33:50.781Z,69.60
2023-05-06T12:36:53.018Z,69.30
2023-05-06T12:39:58.446Z,69.10
2023-05-06T12:43:01.512Z,69.00
2023-05-06T12:46:08.070Z,68.00
2023-05-06T12:49:10.441Z,68.10
2023-05-06T12:52:12.604Z,68.80
2023-05-06T12:55:14.723Z,70.50
2023-05-06T12:58:19.099Z,70.30
2023-05-06T13:01:22.680Z,71.10
2023-05-06T13:04:25.073Z,70.50
2023-05-06T13:07:27.445Z,71.30
2023-05-06T13:10:29.526Z,71.50
2023-05-06T13:13:31.652Z,70.10
2023-05-06T13:16:35.426Z,70.90
2023-05-06T13:19:37.774Z,71.80
2023-05-06T13:22:53.261Z,72.30
2023-05-06T13:26:04.095Z,72.60
2023-05-06T13:29:07.493Z,72.00
2023-05-06T13:32:09.669Z,71.20
2023-05-06T13:35:12.062Z,71.10
2023-05-06T13:38:14.420Z,71.40
2023-05-06T13:41:16.624Z,71.60
2023-05-06T13:44:22.402Z,72.20
2023-05-06T13:47:25.349Z,72.30
2023-05-06T13:50:27.444Z,71.70
2023-05-06T13:53:30.165Z,70.80
2023-05-06T13:56:34.275Z,73.10
2023-05-06T13:59:36.374Z,73.20
2023-05-06T14:02:39.103Z,71.40
2023-05-06T14:05:41.666Z,70.50
2023-05-06T14:08:43.824Z,71.10
2023-05-06T14:11:46.164Z,71.50
2023-05-06T14:14:48.411Z,71.30
2023-05-06T14:17:50.508Z,71.30
2023-05-06T14:20:52.701Z,70.50
2023-05-06T14:23:54.881Z,70.50
2023-05-06T14:26:57.083Z,69.90
2023-05-06T14:29:59.627Z,69.70
2023-05-06T14:33:02.075Z,72.40
2023-05-06T14:36:04.950Z,71.60
2023-05-06T14:39:07.707Z,69.40
2023-05-06T14:42:10.407Z,70.60
2023-05-06T14:45:13.715Z,72.10
2023-05-06T14:48:16.156Z,71.60
2023-05-06T14:51:18.460Z,70.70
2023-05-06T14:54:20.778Z,70.90
2023-05-06T14:57:23.965Z,71.50
2023-05-06T15:00:27.934Z,71.40
2023-05-06T15:03:30.488Z,70.80
2023-05-06T15:06:33.674Z,70.70
2023-05-06T15:09:35.862Z,71.00
2023-05-06T15:12:38.057Z,71.60
2023-05-06T15:15:40.810Z,72.50
2023-05-06T15:18:45.176Z,72.70
2023-05-06T15:21:47.543Z,72.40
2023-05-06T15:24:53.376Z,70.80
2023-05-06T15:27:55.699Z,71.90
2023-05-06T15:30:57.883Z,72.70
2023-05-06T15:34:00.727Z,72.30
2023-05-06T15:37:03.120Z,72.70
2023-05-06T15:40:10.818Z,72.60
2023-05-06T15:43:17.815Z,72.70
2023-05-06T15:46:29.305Z,72.20
2023-05-06T15:52:36.963Z,72.40
2023-05-06T15:55:46.435Z,72.10
2023-05-06T15:58:51.626Z,72.80
2023-05-06T16:04:59.683Z,71.60
2023-05-06T16:08:01.894Z,72.60
2023-05-06T16:11:05.905Z,73.40
2023-05-06T16:14:08.080Z,73.60
2023-05-06T16:17:10.150Z,74.30
2023-05-06T16:20:13.026Z,74.90
2023-05-06T16:23:16.496Z,74.50
2023-05-06T16:26:18.763Z,76.10
2023-05-06T16:29:21.093Z,76.10
2023-05-06T16:32:23.778Z,76.10
2023-05-06T16:35:26.152Z,76.40
2023-05-06T16:38:29.232Z,76.60
2023-05-06T16:41:32.532Z,77.20
2023-05-06T16:44:37.570Z,77.40
2023-05-06T16:47:40.213Z,77.80
2023-05-06T16:50:43.110Z,79.10
2023-05-06T16:53:45.279Z,80.00
2023-05-06T16:56:52.436Z,79.30
2023-05-06T16:59:55.415Z,78.90
2023-05-06T17:02:57.851Z,79.10
2023-05-06T17:06:00.364Z,78.80
2023-05-06T17:09:02.470Z,79.00
2023-05-06T17:12:05.163Z,79.10
2023-05-06T17:15:08.270Z,79.30
2023-05-06T17:18:10.843Z,79.20
2023-05-06T17:21:13.119Z,79.60
2023-05-06T17:24:15.243Z,80.00
2023-05-06T17:27:20.238Z,80.20
2023-05-06T17:30:22.860Z,81.00
2023-05-06T17:33:25.168Z,81.70
2023-05-06T17:36:27.663Z,82.00
2023-05-06T17:39:29.717Z,82.40
2023-05-06T17:42:31.808Z,83.10
2023-05-06T17:45:33.973Z,83.30
2023-05-06T17:48:36.248Z,83.40
2023-05-06T17:51:38.407Z,84.00
2023-05-06T17:54:40.605Z,85.10
2023-05-06T17:57:42.971Z,85.00
2023-05-06T18:00:45.574Z,86.30
2023-05-06T18:03:47.839Z,87.20
2023-05-06T18:06:49.991Z,87.60
2023-05-06T18:09:52.345Z,88.50
2023-05-06T18:12:55.640Z,88.20
2023-05-06T18:15:58.165Z,87.80
2023-05-06T18:19:04.855Z,87.50
2023-05-06T18:22:07.021Z,87.50
2023-05-06T18:25:10.019Z,87.70
2023-05-06T18:28:12.673Z,87.40
2023-05-06T18:31:15.215Z,87.50
2023-05-06T18:34:20.111Z,88.30
2023-05-06T18:37:22.197Z,88.10
2023-05-06T18:40:24.294Z,89.70
2023-05-06T18:43:26.349Z,89.10
2023-05-06T18:46:28.818Z,89.70
2023-05-06T18:49:31.558Z,90.00
2023-05-06T18:52:36.136Z,89.90
2023-05-06T18:55:38.228Z,90.10
2023-05-06T18:58:40.775Z,90.10
2023-05-06T19:01:42.880Z,90.30
2023-05-06T19:04:45.047Z,90.60
2023-05-06T19:07:47.092Z,91.20
2023-05-06T19:10:49.569Z,91.10
2023-05-06T19:13:52.492Z,91.30
2023-05-06T19:16:54.773Z,91.50
2023-05-06T19:19:57.100Z,91.40
2023-05-06T19:22:59.355Z,91.80
2023-05-06T19:26:01.539Z,91.70
2023-05-06T19:29:04.705Z,92.00
2023-05-06T19:32:06.854Z,92.30
2023-05-06T19:35:09.692Z,91.60
2023-05-06T19:38:12.000Z,91.40
2023-05-06T19:41:14.155Z,91.50
2023-05-06T19:44:16.272Z,91.70
2023-05-06T19:47:18.328Z,91.80
2023-05-06T19:50:20.696Z,92.20
2023-05-06T19:53:24.096Z,92.40
2023-05-06T19:56:26.168Z,92.40
2023-05-06T19:59:28.491Z,92.50
2023-05-06T20:02:33.066Z,92.50
2023-05-06T20:05:36.331Z,92.50
2023-05-06T20:08:38.420Z,92.60
2023-05-06T20:11:40.574Z,92.80
2023-05-06T20:14:42.684Z,92.90
2023-05-06T20:17:45.051Z,92.70
2023-05-06T20:20:47.401Z,93.10
2023-05-06T20:23:49.894Z,93.10
2023-05-06T20:26:52.132Z,93.10
2023-05-06T20:29:54.303Z,93.40
2023-05-06T20:32:56.513Z,93.80
2023-05-06T20:35:58.754Z,93.70
2023-05-06T20:39:01.153Z,93.70
2023-05-06T20:42:03.379Z,93.90
2023-05-06T20:45:06.247Z,93.90
2023-05-06T20:48:08.431Z,93.70
2023-05-06T20:51:10.818Z,93.80
2023-05-06T20:54:13.158Z,93.90
2023-05-06T20:57:16.602Z,94.00
2023-05-06T21:00:19.458Z,94.10
2023-05-06T21:03:21.689Z,93.90
2023-05-06T21:06:23.983Z,94.00
2023-05-06T21:09:29.502Z,93.80
2023-05-06T21:12:33.061Z,93.90
2023-05-06T21:15:35.536Z,94.20
2023-05-06T21:18:37.659Z,94.60
2023-05-06T21:21:40.008Z,94.30
2023-05-06T21:24:42.125Z,94.40
2023-05-06T21:27:45.225Z,94.90
2023-05-06T21:30:47.533Z,94.50
2023-05-06T21:33:55.017Z,95.00
2023-05-06T21:36:57.842Z,94.90
2023-05-06T21:40:02.824Z,95.00
2023-05-06T21:43:05.022Z,95.00
2023-05-06T21:46:07.135Z,95.10
2023-05-06T21:49:09.385Z,95.40
2023-05-06T21:52:11.521Z,95.50
2023-05-06T21:55:13.966Z,95.50
2023-05-06T21:58:16.067Z,95.40
2023-05-06T22:01:19.465Z,95.50
2023-05-06T22:04:21.818Z,95.40
2023-05-06T22:07:24.012Z,95.60
2023-05-06T22:10:26.477Z,95.90
2023-05-06T22:13:28.686Z,95.80
2023-05-06T22:16:30.842Z,96.10
2023-05-06T22:19:32.975Z,96.00
2023-05-06T22:22:35.469Z,96.40
2023-05-06T22:25:38.266Z,96.30
2023-05-06T22:28:40.421Z,96.50
2023-05-06T22:31:42.684Z,96.20
2023-05-06T22:34:45.033Z,96.30
2023-05-06T22:37:47.317Z,96.50
2023-05-06T22:40:49.449Z,96.80
2023-05-06T22:43:51.605Z,96.80
2023-05-06T22:46:54.979Z,96.70
2023-05-06T22:49:57.357Z,96.70
2023-05-06T22:53:04.824Z,96.70
2023-05-06T22:56:12.733Z,96.90
2023-05-06T22:59:15.045Z,96.80
2023-05-06T23:02:17.272Z,96.90
2023-05-06T23:05:19.364Z,97.00
2023-05-06T23:08:21.652Z,97.10
2023-05-06T23:11:23.729Z,97.10
2023-05-06T23:14:25.923Z,97.30
2023-05-06T23:17:28.060Z,97.50
2023-05-06T23:20:30.336Z,97.50
2023-05-06T23:23:33.089Z,97.70
2023-05-06T23:26:35.300Z,97.60
2023-05-06T23:29:37.375Z,97.40
2023-05-06T23:32:40.099Z,97.30
2023-05-06T23:35:42.242Z,97.30
2023-05-06T23:38:44.510Z,97.40
2023-05-06T23:41:46.523Z,97.30
2023-05-06T23:44:51.437Z,97.10
2023-05-06T23:47:54.458Z,97.20
2023-05-06T23:50:56.668Z,97.20
2023-05-06T23:53:58.721Z,97.50
2023-05-06T23:57:03.110Z,97.40
